Time;durP1;ratioP1;P1;durP2;ratioP2;P2;SDS_P1;SDS_P2;PMS_P1;PMS_P2;Temp;Humidity;BMP_temperature;BMP_pressure;BME280_temperature;BME280_humidity;BME280_pressure;Samples;Min_cycle;Max_cycle;Signal;HPM_P1;HPM_P2
2022/04/30 00:02:08;;;;;;;;;;;;;;;14.95;56.67;95578.59;4958303;28;1018;-49
2022/04/30 00:04:35;;;;;;;;;;;;;;;14.87;57.09;95576.81;4957937;28;1026;-49
2022/04/30 00:07:02;;;;;;;;;;;;;;;14.86;57.55;95577.84;4957920;28;1053;-49
2022/04/30 00:09:28;;;;;;;;;;;;;;;14.83;57.19;95572.78;4957685;28;1047;-48
2022/04/30 00:11:54;;;;;;;;;;;;;;;14.83;58.05;95576.34;4957653;28;2020;-49
2022/04/30 00:14:20;;;;;;;;;;;;;;;14.89;57.32;95585.56;4957942;28;947;-49
2022/04/30 00:16:47;;;;;;;;;;;;;;;14.90;57.50;95568.38;4957775;28;1026;-49
2022/04/30 00:19:13;;;;;;;;;;;;;;;14.82;59.77;95581.91;4957754;28;1054;-49
2022/04/30 00:21:39;;;;;;;;;;;;;;;14.80;60.28;95584.75;4957592;28;1012;-49
2022/04/30 00:24:05;;;;;;;;;;;;;;;14.78;60.77;95583.28;4957871;28;1042;-48
2022/04/30 00:26:31;;;;;;;;;;;;;;;14.67;61.66;95589.03;4969195;28;1160;-49
2022/04/30 00:28:57;;;;;;;;;;;;;;;14.52;64.65;95594.28;4976769;28;1103;-48
2022/04/30 00:31:24;;;;;;;;;;;;;;;14.39;65.17;95592.16;4976432;28;1906;-48
2022/04/30 00:33:51;;;;;;;;;;;;;;;14.29;66.16;95592.34;4976866;28;1057;-48
2022/04/30 00:36:17;;;;;;;;;;;;;;;14.23;66.39;95596.56;4976334;28;1840;-48
2022/04/30 00:38:43;;;;;;;;;;;;;;;14.09;68.00;95586.53;4976555;28;1012;-48
2022/04/30 00:41:10;;;;;;;;;;;;;;;14.01;67.99;95591.94;4975577;28;971;-48
2022/04/30 00:43:46;;;;;;;;;;;;;;;13.95;69.26;95587.25;4976668;28;1060;-48
2022/04/30 00:46:13;;;;;;;;;;;;;;;14.03;67.53;95587.22;4976519;28;1231;-48
2022/04/30 00:48:39;;;;;;;;;;;;;;;13.94;68.46;95582.88;4976500;28;774;-48
2022/04/30 00:51:09;;;;;;;;;;;;;;;13.96;68.52;95596.97;4976432;28;1911;-47
2022/04/30 00:53:36;;;;;;;;;;;;;;;13.91;68.41;95589.44;4976472;28;1058;-48
2022/04/30 00:56:02;;;;;;;;;;;;;;;13.96;68.43;95587.09;4976133;28;1008;-48
2022/04/30 00:58:29;;;;;;;;;;;;;;;13.79;70.40;95583.59;4976579;28;1035;-48
2022/04/30 01:00:55;;;;;;;;;;;;;;;13.67;70.49;95587.63;4976310;28;1033;-48
2022/04/30 01:03:21;;;;;;;;;;;;;;;13.60;70.46;95576.72;4976181;28;1033;-48
2022/04/30 01:05:49;;;;;;;;;;;;;;;13.46;71.65;95585.44;4976225;28;1008;-48
2022/04/30 01:08:15;;;;;;;;;;;;;;;13.36;71.96;95574.88;4975771;28;1039;-48
2022/04/30 01:10:41;;;;;;;;;;;;;;;13.31;72.91;95574.53;4976016;28;1985;-48
2022/04/30 01:13:08;;;;;;;;;;;;;;;13.26;72.95;95585.75;4976077;28;1302;-48
2022/04/30 01:15:34;;;;;;;;;;;;;;;13.19;73.37;95579.38;4976106;28;1072;-48
2022/04/30 01:18:01;;;;;;;;;;;;;;;13.19;73.55;95582.06;4976064;28;1030;-48
2022/04/30 01:20:27;;;;;;;;;;;;;;;13.16;73.72;95579.69;4975838;28;951;-48
2022/04/30 01:22:57;;;;;;;;;;;;;;;13.29;73.23;95579.19;4975753;28;1041;-48
2022/04/30 01:25:24;;;;;;;;;;;;;;;13.33;72.78;95575.19;4975527;28;1841;-48
2022/04/30 01:27:52;;;;;;;;;;;;;;;13.43;72.47;95578.56;4975562;28;1092;-47
2022/04/30 01:30:19;;;;;;;;;;;;;;;13.48;72.38;95575.38;4975558;28;1906;-47
2022/04/30 01:38:15;;;;;;;;;;;;;;;13.18;73.51;95576.84;4975831;28;1046;-48
2022/04/30 01:40:41;;;;;;;;;;;;;;;13.06;74.21;95574.47;4975561;28;968;-48
2022/04/30 01:43:08;;;;;;;;;;;;;;;13.04;75.44;95567.63;4975751;28;1054;-48
2022/04/30 01:45:35;;;;;;;;;;;;;;;12.97;75.43;95562.06;4975401;28;1046;-47
2022/04/30 01:48:02;;;;;;;;;;;;;;;13.05;75.54;95566.59;4975297;28;955;-48
2022/04/30 01:50:28;;;;;;;;;;;;;;;13.05;75.53;95564.75;4974798;28;1985;-48
2022/04/30 01:52:54;;;;;;;;;;;;;;;13.01;75.76;95570.63;4975348;28;962;-48
2022/04/30 01:55:20;;;;;;;;;;;;;;;13.01;75.91;95563.44;4975246;28;951;-48
2022/04/30 01:57:47;;;;;;;;;;;;;;;13.02;76.21;95565.09;4975164;28;1049;-48
2022/04/30 02:00:14;;;;;;;;;;;;;;;12.96;76.01;95570.28;4975087;28;1069;-48
2022/04/30 02:02:44;;;;;;;;;;;;;;;12.97;75.97;95566.59;4975083;28;967;-48
2022/04/30 02:05:12;;;;;;;;;;;;;;;12.92;76.01;95571.59;4975301;28;1044;-48
2022/04/30 02:07:40;;;;;;;;;;;;;;;12.97;75.69;95556.69;4974931;28;966;-48
2022/04/30 02:10:07;;;;;;;;;;;;;;;12.95;76.75;95555.19;4975256;28;978;-48
2022/04/30 02:12:33;;;;;;;;;;;;;;;13.01;75.83;95557.19;4974788;28;1034;-49
2022/04/30 02:15:00;;;;;;;;;;;;;;;13.11;74.67;95555.22;4974869;28;1017;-48
2022/04/30 02:17:28;;;;;;;;;;;;;;;13.08;75.67;95561.72;4974704;28;1034;-48
2022/04/30 02:22:40;;;;;;;;;;;;;;;13.10;75.22;95556.19;4974518;28;1085;-49
2022/04/30 02:25:09;;;;;;;;;;;;;;;13.06;75.16;95555.69;4974747;28;1163;-49
2022/04/30 02:27:39;;;;;;;;;;;;;;;13.09;76.06;95549.16;4974245;28;1111;-49
2022/04/30 02:30:06;;;;;;;;;;;;;;;13.09;75.41;95552.69;4974961;28;975;-49
2022/04/30 02:32:39;;;;;;;;;;;;;;;13.16;74.95;95542.09;4974607;28;2078;-49
2022/04/30 02:35:06;;;;;;;;;;;;;;;13.20;75.15;95543.47;4974674;28;1020;-48
2022/04/30 02:37:32;;;;;;;;;;;;;;;13.29;75.12;95541.59;4974636;28;1011;-49
2022/04/30 02:39:58;;;;;;;;;;;;;;;13.20;75.20;95539.91;4974711;28;970;-49
2022/04/30 02:42:24;;;;;;;;;;;;;;;13.04;76.23;95544.28;4974213;28;1099;-49
2022/04/30 02:44:50;;;;;;;;;;;;;;;12.90;77.38;95542.28;4974774;28;1043;-48
2022/04/30 02:47:16;;;;;;;;;;;;;;;12.97;76.02;95543.25;4974494;28;969;-49
2022/04/30 02:49:42;;;;;;;;;;;;;;;13.10;76.18;95542.78;4974539;28;994;-49
2022/04/30 02:52:08;;;;;;;;;;;;;;;13.17;76.19;95551.84;4974464;28;1910;-49
2022/04/30 02:54:34;;;;;;;;;;;;;;;13.16;75.00;95549.31;4974623;28;1049;-49
2022/04/30 02:57:01;;;;;;;;;;;;;;;13.15;74.84;95548.50;4974483;28;1038;-49
2022/04/30 03:02:12;;;;;;;;;;;;;;;13.18;74.74;95539.25;4974472;28;979;-49
2022/04/30 03:04:38;;;;;;;;;;;;;;;13.18;75.02;95541.94;4978165;28;982;-48
2022/04/30 03:07:04;;;;;;;;;;;;;;;13.16;75.19;95546.63;4978452;28;955;-49
2022/04/30 03:09:31;;;;;;;;;;;;;;;13.14;75.89;95543.28;4978187;28;1048;-49
2022/04/30 03:11:58;;;;;;;;;;;;;;;13.14;74.86;95537.91;4978113;28;1999;-49
2022/04/30 03:14:24;;;;;;;;;;;;;;;13.17;75.28;95546.47;4978183;28;1045;-49
2022/04/30 03:22:19;;;;;;;;;;;;;;;13.26;74.02;95550.84;4978121;28;1113;-48
2022/04/30 03:24:46;;;;;;;;;;;;;;;13.27;73.81;95546.31;4978023;28;1212;-48
2022/04/30 03:27:17;;;;;;;;;;;;;;;13.25;73.65;95546.47;4976419;28;1167;-49
2022/04/30 03:29:44;;;;;;;;;;;;;;;13.25;73.61;95545.63;4977954;28;1018;-48
2022/04/30 03:32:10;;;;;;;;;;;;;;;13.21;74.78;95550.50;4978047;28;1910;-49
2022/04/30 03:34:36;;;;;;;;;;;;;;;13.18;74.75;95550.81;4977528;28;1193;-49
2022/04/30 03:37:03;;;;;;;;;;;;;;;13.16;74.25;95550.16;4978072;28;976;-49
2022/04/30 03:39:29;;;;;;;;;;;;;;;13.15;75.03;95555.72;4977790;28;1011;-49
2022/04/30 03:41:55;;;;;;;;;;;;;;;13.16;74.92;95555.53;4977975;28;954;-48
2022/04/30 03:44:21;;;;;;;;;;;;;;;13.11;75.85;95552.53;4977389;28;1100;-48
2022/04/30 03:46:47;;;;;;;;;;;;;;;13.03;76.53;95548.00;4977618;28;1072;-48
2022/04/30 03:49:13;;;;;;;;;;;;;;;13.09;76.15;95551.84;4977327;28;978;-49
2022/04/30 03:51:39;;;;;;;;;;;;;;;13.13;76.37;95547.81;4977705;28;1906;-48
2022/04/30 03:54:05;;;;;;;;;;;;;;;13.18;76.07;95556.19;4977287;28;1100;-49
2022/04/30 03:56:32;;;;;;;;;;;;;;;13.19;75.50;95554.38;4977670;28;1031;-48
2022/04/30 03:58:58;;;;;;;;;;;;;;;13.13;75.50;95555.00;4977160;28;1025;-48
2022/04/30 04:01:24;;;;;;;;;;;;;;;13.07;76.71;95549.34;4977263;28;1092;-48
2022/04/30 04:03:50;;;;;;;;;;;;;;;13.12;76.74;95558.72;4977022;28;1040;-48
2022/04/30 04:06:17;;;;;;;;;;;;;;;13.16;75.76;95562.75;4977468;28;1037;-49
2022/04/30 04:08:43;;;;;;;;;;;;;;;13.15;76.26;95561.91;4977060;28;1030;-49
2022/04/30 04:11:13;;;;;;;;;;;;;;;13.13;76.65;95557.69;4977390;28;1966;-48
2022/04/30 04:19:09;;;;;;;;;;;;;;;13.15;77.12;95558.41;4976802;28;1045;-50
2022/04/30 04:21:35;;;;;;;;;;;;;;;13.16;76.83;95562.75;4977034;28;1032;-49
2022/04/30 04:26:46;;;;;;;;;;;;;;;13.13;76.71;95571.97;4976674;28;1310;-49
2022/04/30 04:29:13;;;;;;;;;;;;;;;13.14;76.55;95567.44;4976896;28;1022;-49
2022/04/30 04:31:39;;;;;;;;;;;;;;;13.21;76.86;95568.47;4976885;28;1906;-49
2022/04/30 04:34:07;;;;;;;;;;;;;;;13.09;77.21;95566.09;4976754;28;1073;-49
2022/04/30 04:36:33;;;;;;;;;;;;;;;13.20;78.25;95564.09;4976872;28;1027;-49
2022/04/30 04:38:59;;;;;;;;;;;;;;;13.26;77.97;95560.72;4976530;28;951;-48
2022/04/30 04:41:25;;;;;;;;;;;;;;;13.30;78.42;95570.19;4976552;28;1014;-49
2022/04/30 04:43:51;;;;;;;;;;;;;;;13.23;78.08;95569.13;4976430;28;1087;-49
2022/04/30 04:46:17;;;;;;;;;;;;;;;13.19;78.86;95579.38;4976479;28;1084;-49
2022/04/30 04:48:43;;;;;;;;;;;;;;;13.21;79.48;95576.53;4976039;28;1072;-49
2022/04/30 04:51:09;;;;;;;;;;;;;;;13.22;78.88;95579.03;4976523;28;2005;-49
2022/04/30 04:53:36;;;;;;;;;;;;;;;13.20;79.79;95582.88;4976741;28;1023;-48
2022/04/30 04:56:03;;;;;;;;;;;;;;;13.28;79.75;95577.53;4976360;28;1044;-49
2022/04/30 04:58:30;;;;;;;;;;;;;;;13.38;78.57;95572.84;4976307;28;1040;-49
2022/04/30 05:00:56;;;;;;;;;;;;;;;13.50;78.21;95580.56;4976146;28;1053;-49
2022/04/30 05:03:22;;;;;;;;;;;;;;;13.63;78.96;95570.16;4976360;28;1016;-49
2022/04/30 05:05:48;;;;;;;;;;;;;;;13.69;77.21;95576.69;4976165;28;1020;-49
2022/04/30 05:08:14;;;;;;;;;;;;;;;13.73;77.02;95580.72;4976116;28;1037;-49
2022/04/30 05:10:40;;;;;;;;;;;;;;;13.79;75.45;95577.34;4975728;28;1902;-49
2022/04/30 05:13:06;;;;;;;;;;;;;;;13.97;74.98;95577.16;4976354;28;1072;-49
2022/04/30 05:15:32;;;;;;;;;;;;;;;14.05;74.47;95579.81;4975976;28;959;-49
2022/04/30 05:17:58;;;;;;;;;;;;;;;14.21;73.94;95587.00;4975820;28;957;-49
2022/04/30 05:20:25;;;;;;;;;;;;;;;14.13;73.97;95587.84;4975816;28;1024;-49
2022/04/30 05:22:52;;;;;;;;;;;;;;;14.12;74.53;95588.03;4975985;28;1000;-49
2022/04/30 05:25:18;;;;;;;;;;;;;;;14.16;74.59;95597.44;4975164;28;1116;-49
2022/04/30 05:27:44;;;;;;;;;;;;;;;14.23;73.72;95588.50;4975621;28;1087;-49
2022/04/30 05:30:10;;;;;;;;;;;;;;;14.25;74.94;95585.66;4975833;28;1057;-49
2022/04/30 05:32:36;;;;;;;;;;;;;;;14.23;75.51;95587.69;4975772;28;1914;-49
2022/04/30 05:35:03;;;;;;;;;;;;;;;14.24;73.60;95590.16;4975509;28;1026;-52
2022/04/30 05:37:29;;;;;;;;;;;;;;;14.34;73.28;95583.75;4975503;28;1135;-48
2022/04/30 05:39:55;;;;;;;;;;;;;;;14.37;73.46;95597.69;4975591;28;966;-49
2022/04/30 05:42:21;;;;;;;;;;;;;;;14.47;72.78;95600.19;4975607;28;1044;-50
2022/04/30 05:44:47;;;;;;;;;;;;;;;14.53;72.73;95595.94;4975213;28;1017;-49
2022/04/30 05:47:13;;;;;;;;;;;;;;;14.62;71.73;95594.94;4975386;28;1088;-49
2022/04/30 05:49:39;;;;;;;;;;;;;;;14.76;70.39;95590.66;4974752;28;1025;-49
2022/04/30 05:52:05;;;;;;;;;;;;;;;15.00;68.42;95595.91;4975339;28;1993;-50
2022/04/30 05:54:31;;;;;;;;;;;;;;;15.03;70.15;95600.94;4975310;28;997;-49
2022/04/30 05:56:57;;;;;;;;;;;;;;;14.92;70.14;95593.28;4975513;28;1022;-49
2022/04/30 05:59:23;;;;;;;;;;;;;;;14.91;69.54;95598.81;4975073;28;1083;-48
2022/04/30 06:01:49;;;;;;;;;;;;;;;14.84;70.99;95601.41;4975029;28;969;-48
2022/04/30 06:04:15;;;;;;;;;;;;;;;14.82;69.24;95604.25;4975290;28;962;-48
2022/04/30 06:06:41;;;;;;;;;;;;;;;14.81;71.53;95607.13;4974813;28;1136;-49
2022/04/30 06:09:07;;;;;;;;;;;;;;;14.91;69.04;95614.97;4974980;28;958;-49
2022/04/30 06:11:33;;;;;;;;;;;;;;;14.98;69.77;95611.41;4974761;28;2029;-48
2022/04/30 06:13:59;;;;;;;;;;;;;;;15.12;68.86;95603.56;4974885;28;1032;-49
2022/04/30 06:16:25;;;;;;;;;;;;;;;15.35;68.47;95593.66;4974885;28;982;-49
2022/04/30 06:18:51;;;;;;;;;;;;;;;15.72;65.97;95599.25;4974819;28;954;-49
2022/04/30 06:21:18;;;;;;;;;;;;;;;16.26;66.11;95598.25;4974865;28;1096;-49
2022/04/30 06:23:44;;;;;;;;;;;;;;;17.05;65.46;95590.38;4974999;28;1062;-49
2022/04/30 06:26:10;;;;;;;;;;;;;;;17.63;62.66;95590.34;4974337;28;1163;-50
2022/04/30 06:28:36;;;;;;;;;;;;;;;17.83;62.70;95593.22;4974632;28;1076;-49
2022/04/30 06:31:02;;;;;;;;;;;;;;;17.72;59.02;95591.88;4974838;28;1919;-50
2022/04/30 06:33:28;;;;;;;;;;;;;;;17.39;60.66;95586.16;4974646;28;946;-48
2022/04/30 06:35:55;;;;;;;;;;;;;;;17.13;60.28;95587.56;4974548;28;1087;-48
2022/04/30 06:38:21;;;;;;;;;;;;;;;16.96;62.05;95583.44;4973964;28;969;-48
2022/04/30 06:40:48;;;;;;;;;;;;;;;16.61;62.55;95585.03;4974541;28;1021;-48
2022/04/30 06:43:14;;;;;;;;;;;;;;;16.32;61.87;95584.03;4974536;28;1021;-48
2022/04/30 06:45:40;;;;;;;;;;;;;;;16.17;62.98;95587.56;4974218;28;1111;-48
2022/04/30 06:48:06;;;;;;;;;;;;;;;16.21;61.92;95582.63;4974290;28;1054;-48
2022/04/30 06:50:32;;;;;;;;;;;;;;;16.30;62.61;95575.28;4974138;28;1915;-48
2022/04/30 06:58:40;;;;;;;;;;;;;;;17.01;61.08;95574.75;4974318;28;1105;-47
2022/04/30 07:01:29;;;;;;;;;;;;;;;17.50;58.53;95565.88;4974536;28;1045;-48
2022/04/30 07:04:04;;;;;;;;;;;;;;;17.61;59.27;95569.94;4974222;28;1084;-48
2022/04/30 07:06:31;;;;;;;;;;;;;;;17.29;58.92;95575.66;4974321;28;1049;-47
2022/04/30 07:08:57;;;;;;;;;;;;;;;17.03;59.54;95575.38;4974541;28;953;-48
2022/04/30 07:11:23;;;;;;;;;;;;;;;16.80;59.66;95573.63;4974021;28;2005;-47
2022/04/30 07:13:49;;;;;;;;;;;;;;;16.58;61.80;95573.59;4974251;28;1057;-47
2022/04/30 07:16:15;;;;;;;;;;;;;;;16.64;60.78;95576.53;4973950;28;1021;-47
2022/04/30 07:18:41;;;;;;;;;;;;;;;16.70;61.17;95575.81;4974362;28;961;-48
2022/04/30 07:21:07;;;;;;;;;;;;;;;16.65;59.87;95573.66;4974271;28;1007;-47
2022/04/30 07:23:33;;;;;;;;;;;;;;;17.34;60.87;95572.41;4974229;28;1026;-47
2022/04/30 07:25:59;;;;;;;;;;;;;;;18.13;56.86;95572.22;4973966;28;1312;-47
2022/04/30 07:28:30;;;;;;;;;;;;;;;18.98;56.79;95577.50;4973790;28;1275;-48
2022/04/30 07:30:56;;;;;;;;;;;;;;;19.68;52.57;95578.06;4974513;28;1906;-47
2022/04/30 07:33:22;;;;;;;;;;;;;;;20.35;51.94;95578.03;4973741;28;2042;-47
2022/04/30 07:35:48;;;;;;;;;;;;;;;20.95;50.54;95579.81;4974029;28;1068;-48
2022/04/30 07:38:14;;;;;;;;;;;;;;;21.37;48.07;95578.31;4974065;28;992;-48
2022/04/30 07:40:40;;;;;;;;;;;;;;;21.32;49.77;95574.59;4973818;28;1072;-48
2022/04/30 07:43:06;;;;;;;;;;;;;;;21.32;48.49;95574.59;4973813;28;1104;-47
2022/04/30 07:45:32;;;;;;;;;;;;;;;21.42;46.70;95566.78;4973816;28;1125;-47
2022/04/30 07:47:58;;;;;;;;;;;;;;;21.63;49.58;95571.91;4973722;28;1020;-48
2022/04/30 07:50:26;;;;;;;;;;;;;;;21.40;46.67;95572.44;4976991;28;1914;-48
2022/04/30 07:52:52;;;;;;;;;;;;;;;20.96;50.09;95565.13;4977364;28;1001;-47
2022/04/30 07:55:18;;;;;;;;;;;;;;;20.87;47.76;95570.00;4977476;28;1024;-47
2022/04/30 07:57:44;;;;;;;;;;;;;;;21.05;49.36;95575.53;4977266;28;1238;-47
2022/04/30 08:00:11;;;;;;;;;;;;;;;21.02;48.43;95572.44;4977265;28;1029;-47
2022/04/30 08:02:38;;;;;;;;;;;;;;;21.00;46.54;95566.38;4976918;28;1010;-47
2022/04/30 08:05:04;;;;;;;;;;;;;;;20.88;46.48;95568.94;4977269;28;1014;-47
2022/04/30 08:07:30;;;;;;;;;;;;;;;21.23;46.90;95572.13;4977323;28;982;-48
2022/04/30 08:09:56;;;;;;;;;;;;;;;21.64;46.45;95570.00;4977524;28;1061;-48
2022/04/30 08:12:22;;;;;;;;;;;;;;;22.03;43.42;95562.59;4977162;28;1915;-48
2022/04/30 08:14:50;;;;;;;;;;;;;;;22.02;44.00;95564.50;4977072;28;1041;-48
2022/04/30 08:17:16;;;;;;;;;;;;;;;21.44;42.23;95560.09;4976723;28;1017;-48
2022/04/30 08:19:42;;;;;;;;;;;;;;;21.51;46.02;95570.94;4977142;28;969;-48
2022/04/30 08:22:08;;;;;;;;;;;;;;;21.92;45.99;95569.59;4975865;28;967;-48
2022/04/30 08:24:35;;;;;;;;;;;;;;;22.08;50.01;95575.53;4976775;28;1057;-48
2022/04/30 08:27:01;;;;;;;;;;;;;;;22.49;43.36;95564.06;4976568;28;1235;-48
2022/04/30 08:29:29;;;;;;;;;;;;;;;22.62;43.97;95563.09;4976961;28;985;-48
2022/04/30 08:31:55;;;;;;;;;;;;;;;22.46;42.76;95559.09;4976741;28;1982;-48
2022/04/30 08:34:22;;;;;;;;;;;;;;;22.11;42.30;95551.41;4976740;28;1008;-48
2022/04/30 08:36:49;;;;;;;;;;;;;;;21.70;44.85;95555.50;4976705;28;1001;-48
2022/04/30 08:39:15;;;;;;;;;;;;;;;22.26;45.16;95553.81;4976761;28;967;-48
2022/04/30 08:41:42;;;;;;;;;;;;;;;22.71;44.69;95560.88;4976863;28;1012;-53
2022/04/30 08:44:15;;;;;;;;;;;;;;;22.48;44.36;95546.06;4976404;28;996;-48
2022/04/30 08:46:41;;;;;;;;;;;;;;;22.70;43.75;95553.78;4976608;28;990;-48
2022/04/30 08:49:08;;;;;;;;;;;;;;;22.33;43.31;95543.69;4976098;28;1025;-48
2022/04/30 08:51:34;;;;;;;;;;;;;;;21.97;42.82;95537.09;4976398;28;1992;-49
2022/04/30 08:54:01;;;;;;;;;;;;;;;21.65;45.47;95530.88;4976495;28;996;-49
2022/04/30 08:56:27;;;;;;;;;;;;;;;21.78;44.12;95529.94;4976504;28;988;-49
2022/04/30 08:59:02;;;;;;;;;;;;;;;22.01;44.16;95538.31;4976138;28;923;-49
2022/04/30 09:01:28;;;;;;;;;;;;;;;22.24;42.86;95545.03;4975110;28;1013;-48
2022/04/30 09:03:55;;;;;;;;;;;;;;;22.42;43.25;95542.34;4976355;28;1036;-49
2022/04/30 09:06:22;;;;;;;;;;;;;;;22.44;44.04;95544.00;4976040;28;1010;-49
2022/04/30 09:08:49;;;;;;;;;;;;;;;22.12;42.47;95534.03;4976231;28;1037;-49
2022/04/30 09:11:15;;;;;;;;;;;;;;;22.31;44.94;95539.53;4975916;28;1891;-47
2022/04/30 09:13:43;;;;;;;;;;;;;;;22.88;44.96;95536.56;4974872;28;1009;-47
2022/04/30 09:16:24;;;;;;;;;;;;;;;23.29;43.96;95529.56;4976224;28;1032;-47
2022/04/30 09:18:52;;;;;;;;;;;;;;;23.12;43.87;95523.91;4975572;28;1079;-48
2022/04/30 09:21:19;;;;;;;;;;;;;;;22.96;40.21;95519.91;4975885;28;1025;-47
2022/04/30 09:23:45;;;;;;;;;;;;;;;22.83;41.34;95520.91;4975622;28;1020;-48
2022/04/30 09:26:11;;;;;;;;;;;;;;;22.79;43.49;95525.16;4975847;28;1135;-48
2022/04/30 09:28:38;;;;;;;;;;;;;;;22.72;43.52;95522.50;4975822;28;974;-49
2022/04/30 09:31:07;;;;;;;;;;;;;;;22.81;41.61;95512.97;4975604;28;1989;-49
2022/04/30 09:33:34;;;;;;;;;;;;;;;23.20;41.49;95520.84;4975518;28;1005;-49
2022/04/30 09:38:49;;;;;;;;;;;;;;;23.22;43.02;95507.00;4975645;28;962;-49
2022/04/30 09:41:20;;;;;;;;;;;;;;;22.90;40.78;95508.03;4975765;28;1022;-49
2022/04/30 09:43:46;;;;;;;;;;;;;;;23.11;41.75;95511.38;4975712;28;1021;-48
2022/04/30 09:46:12;;;;;;;;;;;;;;;22.91;42.56;95495.22;4990604;28;957;-48
2022/04/30 09:54:08;;;;;;;;;;;;;;;22.76;42.16;95482.00;4975131;28;1104;-48
2022/04/30 09:56:41;;;;;;;;;;;;;;;22.49;42.04;95479.59;4975504;28;1045;-48
2022/04/30 09:59:11;;;;;;;;;;;;;;;22.54;39.65;95478.94;4975115;28;942;-48
2022/04/30 10:01:39;;;;;;;;;;;;;;;22.27;42.72;95475.66;4975358;28;980;-52
2022/04/30 10:04:10;;;;;;;;;;;;;;;22.42;43.20;95470.66;4975189;28;982;-49
2022/04/30 10:06:43;;;;;;;;;;;;;;;22.83;42.01;95465.56;4975245;28;1034;-47
2022/04/30 10:09:14;;;;;;;;;;;;;;;23.15;40.25;95466.19;4974906;28;966;-47
2022/04/30 10:12:01;;;;;;;;;;;;;;;23.12;40.51;95463.91;4975014;28;2043;-49
2022/04/30 10:14:47;;;;;;;;;;;;;;;23.15;39.07;95463.47;4974644;28;1017;-48
2022/04/30 10:17:17;;;;;;;;;;;;;;;23.27;41.80;95453.41;4975271;28;1015;-50
2022/04/30 10:19:45;;;;;;;;;;;;;;;23.67;41.43;95455.50;4974749;28;1938;-50
2022/04/30 10:22:17;;;;;;;;;;;;;;;23.59;40.04;95453.94;4974782;28;1055;-51
2022/04/30 10:24:44;;;;;;;;;;;;;;;23.66;39.66;95458.47;4974901;28;957;-47
2022/04/30 10:27:10;;;;;;;;;;;;;;;23.50;40.11;95451.81;4974754;28;1159;-47
2022/04/30 10:29:37;;;;;;;;;;;;;;;23.25;41.42;95447.34;4973317;28;1001;-47
2022/04/30 10:32:03;;;;;;;;;;;;;;;23.44;40.38;95442.66;4974737;28;1907;-47
2022/04/30 10:34:30;;;;;;;;;;;;;;;23.81;40.50;95441.66;4974689;28;1029;-47
2022/04/30 10:37:00;;;;;;;;;;;;;;;23.55;40.77;95441.03;4974539;28;1058;-47
2022/04/30 10:39:26;;;;;;;;;;;;;;;23.28;38.74;95435.16;4974812;28;1014;-47
2022/04/30 10:41:53;;;;;;;;;;;;;;;23.22;39.28;95436.06;4974866;28;1033;-49
2022/04/30 10:44:29;;;;;;;;;;;;;;;22.52;39.91;95434.72;4974204;28;1029;-47
2022/04/30 10:46:55;;;;;;;;;;;;;;;22.02;40.15;95431.09;4974561;28;1037;-48
2022/04/30 10:49:21;;;;;;;;;;;;;;;21.91;41.76;95433.72;4973975;28;1020;-47
2022/04/30 10:51:53;;;;;;;;;;;;;;;21.76;42.09;95431.34;4974720;28;1910;-48
2022/04/30 10:54:20;;;;;;;;;;;;;;;21.96;42.19;95439.31;4974587;28;1002;-48
2022/04/30 10:56:46;;;;;;;;;;;;;;;22.03;39.04;95440.09;4974408;28;1000;-47
2022/04/30 10:59:21;;;;;;;;;;;;;;;22.05;40.49;95431.69;4974588;28;1053;-47
2022/04/30 11:01:50;;;;;;;;;;;;;;;21.97;40.75;95433.66;4974286;28;1063;-47
2022/04/30 11:04:17;;;;;;;;;;;;;;;21.94;41.19;95425.09;4974257;28;1025;-47
2022/04/30 11:06:45;;;;;;;;;;;;;;;22.05;39.46;95427.06;4974365;28;1065;-47
2022/04/30 11:09:11;;;;;;;;;;;;;;;22.23;41.80;95420.78;4974558;28;971;-47
2022/04/30 11:11:38;;;;;;;;;;;;;;;22.31;38.57;95417.81;4973938;28;1990;-48
2022/04/30 11:14:08;;;;;;;;;;;;;;;22.39;39.27;95428.38;4974253;28;985;-48
2022/04/30 11:16:35;;;;;;;;;;;;;;;22.54;38.80;95424.44;4974020;28;1034;-47
2022/04/30 11:19:04;;;;;;;;;;;;;;;22.65;37.93;95420.09;4974094;28;1020;-48
2022/04/30 11:21:31;;;;;;;;;;;;;;;22.35;39.06;95420.91;4974296;28;1079;-48
2022/04/30 11:23:57;;;;;;;;;;;;;;;22.15;40.29;95423.81;4974979;28;1021;-47
2022/04/30 11:26:23;;;;;;;;;;;;;;;21.88;39.28;95421.38;4977727;28;1262;-49
2022/04/30 11:28:49;;;;;;;;;;;;;;;21.66;39.71;95418.25;4978235;28;1020;-48
2022/04/30 11:31:19;;;;;;;;;;;;;;;21.48;39.99;95418.22;4977877;28;1903;-49
2022/04/30 11:33:45;;;;;;;;;;;;;;;21.18;40.55;95405.25;4977896;28;1080;-49
2022/04/30 11:36:12;;;;;;;;;;;;;;;21.17;41.63;95412.59;4977742;28;1128;-48
2022/04/30 11:38:39;;;;;;;;;;;;;;;21.06;41.22;95408.69;4977864;28;1020;-49
2022/04/30 11:41:05;;;;;;;;;;;;;;;21.12;43.23;95404.25;4977889;28;964;-48
2022/04/30 11:43:32;;;;;;;;;;;;;;;21.09;43.18;95404.69;4977576;28;1020;-48
2022/04/30 11:45:59;;;;;;;;;;;;;;;21.06;43.24;95405.16;4977436;28;1033;-48
2022/04/30 11:48:27;;;;;;;;;;;;;;;21.21;43.48;95410.25;4977356;28;1103;-48
2022/04/30 11:50:54;;;;;;;;;;;;;;;21.47;43.82;95411.94;4977409;28;1906;-49
2022/04/30 11:53:20;;;;;;;;;;;;;;;21.53;42.23;95407.50;4977492;28;1012;-48
2022/04/30 11:55:46;;;;;;;;;;;;;;;21.43;40.70;95402.53;4977464;28;999;-48
2022/04/30 11:58:12;;;;;;;;;;;;;;;21.27;42.23;95393.06;4977501;28;1032;-48
2022/04/30 12:00:39;;;;;;;;;;;;;;;21.21;41.90;95397.50;4976988;28;1072;-48
2022/04/30 12:03:05;;;;;;;;;;;;;;;21.08;42.10;95399.47;4977336;28;1076;-48
2022/04/30 12:05:32;;;;;;;;;;;;;;;20.88;41.80;95389.56;4977287;28;1030;-49
2022/04/30 12:08:01;;;;;;;;;;;;;;;21.06;41.38;95386.13;4977222;28;1021;-48
2022/04/30 12:10:28;;;;;;;;;;;;;;;21.31;42.11;95382.56;4977113;28;970;-48
2022/04/30 12:12:54;;;;;;;;;;;;;;;21.69;42.23;95387.06;4977149;28;1979;-49
2022/04/30 12:15:21;;;;;;;;;;;;;;;21.80;39.36;95381.69;4977246;28;996;-48
2022/04/30 12:26:07;;;;;;;;;;;;;;;21.91;37.08;95355.63;4976800;28;1147;-49
2022/04/30 12:28:43;;;;;;;;;;;;;;;21.93;39.20;95358.94;4976820;28;1091;-48
2022/04/30 12:31:10;;;;;;;;;;;;;;;22.09;39.48;95357.50;4976672;28;1985;-47
2022/04/30 12:33:41;;;;;;;;;;;;;;;22.15;37.82;95353.84;4976834;28;971;-47
2022/04/30 12:36:10;;;;;;;;;;;;;;;22.21;39.71;95349.38;4975553;28;954;-47
2022/04/30 12:38:36;;;;;;;;;;;;;;;22.40;39.33;95347.47;4976875;28;1000;-53
2022/04/30 12:41:02;;;;;;;;;;;;;;;22.37;39.19;95346.06;4976538;28;974;-48
2022/04/30 12:43:31;;;;;;;;;;;;;;;22.41;40.02;95343.72;4976484;28;1099;-48
2022/04/30 12:45:57;;;;;;;;;;;;;;;22.33;38.54;95342.16;4976757;28;1013;-47
2022/04/30 12:48:23;;;;;;;;;;;;;;;22.12;38.14;95339.84;4976306;28;1865;-48
2022/04/30 12:50:49;;;;;;;;;;;;;;;22.01;38.25;95345.03;4976354;28;1926;-48
2022/04/30 12:53:15;;;;;;;;;;;;;;;21.92;37.26;95331.94;4976320;28;1028;-47
2022/04/30 12:55:42;;;;;;;;;;;;;;;21.88;36.95;95338.91;4976410;28;1547;-48
2022/04/30 12:58:08;;;;;;;;;;;;;;;22.02;39.08;95324.06;4976364;28;1012;-47
2022/04/30 13:00:35;;;;;;;;;;;;;;;21.79;37.39;95327.47;4976220;28;1067;-48
2022/04/30 13:03:01;;;;;;;;;;;;;;;21.74;38.36;95325.47;4976156;28;1076;-48
2022/04/30 13:05:27;;;;;;;;;;;;;;;21.71;37.78;95320.47;4976430;28;1000;-48
2022/04/30 13:08:14;;;;;;;;;;;;;;;21.63;37.49;95320.75;4919293;28;1228;-48
2022/04/30 13:13:31;;;;;;;;;;;;;;;21.77;37.52;95318.72;4975812;28;1045;-48
2022/04/30 13:16:07;;;;;;;;;;;;;;;21.60;36.74;95313.88;4976023;28;1029;-48
2022/04/30 13:18:34;;;;;;;;;;;;;;;21.75;38.20;95310.78;4975784;28;1041;-48
2022/04/30 13:21:02;;;;;;;;;;;;;;;21.85;38.76;95304.78;4976116;28;993;-47
2022/04/30 13:23:28;;;;;;;;;;;;;;;21.96;38.10;95301.31;4975776;28;963;-48
2022/04/30 13:25:54;;;;;;;;;;;;;;;21.98;38.11;95315.53;4976071;28;1213;-47
2022/04/30 13:28:20;;;;;;;;;;;;;;;21.83;37.19;95306.91;4975316;28;1241;-48
2022/04/30 13:30:46;;;;;;;;;;;;;;;21.64;38.40;95306.94;4975720;28;1911;-47
2022/04/30 13:33:12;;;;;;;;;;;;;;;21.56;37.80;95299.06;4975809;28;1029;-48
2022/04/30 13:35:39;;;;;;;;;;;;;;;21.56;37.40;95296.34;4975854;28;1014;-47
2022/04/30 13:38:05;;;;;;;;;;;;;;;21.52;39.14;95289.69;4975534;28;974;-47
2022/04/30 13:40:31;;;;;;;;;;;;;;;21.42;38.79;95283.94;4975613;28;980;-48
2022/04/30 13:42:57;;;;;;;;;;;;;;;21.25;38.88;95279.06;4975566;28;970;-48
2022/04/30 13:45:24;;;;;;;;;;;;;;;21.31;40.21;95285.50;4975447;28;1079;-48
2022/04/30 13:47:50;;;;;;;;;;;;;;;21.25;39.96;95289.94;4974627;28;1025;-48
2022/04/30 13:50:17;;;;;;;;;;;;;;;21.20;40.43;95295.22;4975546;28;1034;-48